This is the latest recevied weather packets stored in our database for station/object KM4KMO-14. If no packets are shown the sender has not sent any weather packets the latest 10 day(s).
| Time | Temp. | Humidity | Pressure | Rain* | Wind** | Luminosity | Snow |
|---|---|---|---|---|---|---|---|
| 1777871541 | 11.11° C | 78% | 1014.9 hPa | 0 mm | - | - | - |
| 1777870641 | 11.11° C | 77% | 1014.9 hPa | 0 mm | - | - | - |
| 1777869741 | 11.67° C | 76% | 1015.1 hPa | 0 mm | - | - | - |
| 1777868841 | 11.67° C | 74% | 1015 hPa | 0 mm | - | - | - |
| 1777867941 | 12.22° C | 72% | 1015.1 hPa | 0 mm | - | - | - |
| 1777867041 | 12.78° C | 70% | 1015 hPa | 0 mm | - | - | - |
| 1777866141 | 12.78° C | 68% | 1015 hPa | 0 mm | - | - | - |
| 1777865241 | 12.78° C | 68% | 1014.9 hPa | 0 mm | - | - | - |
| 1777864341 | 13.33° C | 67% | 1014.8 hPa | 0 mm | - | - | - |
| 1777863441 | 13.89° C | 66% | 1014.7 hPa | 0 mm | - | - | - |
| 1777862542 | 13.89° C | 67% | 1014.5 hPa | 0 mm | - | - | - |
| 1777861642 | 13.89° C | 69% | 1014.4 hPa | 0 mm | - | - | - |
| 1777860742 | 14.44° C | 69% | 1014.4 hPa | 0 mm | - | - | - |
| 1777859842 | 14.44° C | 67% | 1014.2 hPa | 0 mm | - | - | - |
| 1777858942 | 15° C | 66% | 1014.3 hPa | 0 mm | - | - | - |
| 1777858042 | 15° C | 65% | 1014.1 hPa | 0 mm | - | - | - |
| 1777857142 | 15.56° C | 61% | 1014 hPa | 0 mm | - | - | - |
| 1777856242 | 16.11° C | 58% | 1013.9 hPa | 0 mm | - | - | - |
| 1777855342 | 16.67° C | 58% | 1013.8 hPa | 0 mm | - | - | - |
| 1777854442 | 17.22° C | 56% | 1013.8 hPa | 0 mm | - | - | - |
| 1777852642 | 18.33° C | 54% | 1013.8 hPa | 0 mm | - | - | - |
| 1777851742 | 18.89° C | 52% | 1013.8 hPa | 0 mm | - | - | - |
| 1777850842 | 19.44° C | 51% | 1013.8 hPa | 0 mm | - | - | - |
| 1777849942 | 20° C | 48% | 1013.9 hPa | 0 mm | - | - | - |
| 1777849042 | 21.11° C | 45% | 1014 hPa | 0 mm | - | - | - |
* Rain latest hour (hover to see other rain measurements)
** Current wind speed in m/s (hover to see current wind gust speed)